createdAt,value
2023-01-27T00:01:05.081Z,431.4
2023-01-27T00:06:55.663Z,442
2023-01-27T00:12:46.444Z,407.3
2023-01-27T00:18:36.783Z,406.9
2023-01-27T00:24:28.019Z,346.1
2023-01-27T00:30:20.246Z,325.6
2023-01-27T00:36:13.761Z,285
2023-01-27T00:43:15.863Z,229.4
2023-01-27T00:49:05.967Z,220.6
2023-01-27T00:54:58.590Z,221.2
2023-01-27T01:00:49.742Z,212.2
2023-01-27T01:06:42.326Z,212.4
2023-01-27T01:12:34.700Z,225.7
2023-01-27T01:18:26.311Z,211.2
2023-01-27T01:24:20.420Z,194.2
2023-01-27T01:30:14.134Z,177.2
2023-01-27T01:36:08.738Z,172.9
2023-01-27T01:41:59.322Z,169.8
2023-01-27T01:47:52.242Z,156.4
2023-01-27T01:53:44.389Z,143.8
2023-01-27T01:59:36.228Z,135.7
2023-01-27T02:05:28.379Z,127.5
2023-01-27T02:11:19.625Z,118.2
2023-01-27T02:17:11.822Z,109.7
2023-01-27T02:23:01.586Z,102.9
2023-01-27T02:28:53.240Z,101
2023-01-27T02:34:47.226Z,92.8
2023-01-27T02:40:38.492Z,86.5
2023-01-27T02:46:31.654Z,86.9
2023-01-27T02:52:23.511Z,82.6
2023-01-27T02:58:14.126Z,82.3
2023-01-27T03:04:07.132Z,78.8
2023-01-27T03:09:59.656Z,79.4
2023-01-27T03:15:58.312Z,73.1
2023-01-27T03:21:50.355Z,74.8
2023-01-27T03:27:43.973Z,79.5
2023-01-27T03:33:36.937Z,79.8
2023-01-27T03:39:28.496Z,80.8
2023-01-27T03:45:25.437Z,81.5
2023-01-27T03:51:19.093Z,89.7
2023-01-27T03:57:13.118Z,79.1
2023-01-27T04:03:08.978Z,69.8
2023-01-27T04:09:01.481Z,68.6
2023-01-27T04:14:52.972Z,65
2023-01-27T04:20:46.949Z,61.9
2023-01-27T04:26:38.497Z,61
2023-01-27T04:32:30.043Z,58.3
2023-01-27T04:38:22.847Z,50.1
2023-01-27T04:44:16.107Z,54.4
2023-01-27T04:50:09.156Z,42.3
2023-01-27T04:56:01.211Z,42.8
2023-01-27T05:01:57.528Z,34.3
2023-01-27T05:07:52.143Z,36.4
2023-01-27T05:13:44.810Z,32.1
2023-01-27T05:19:38.061Z,32.7
2023-01-27T05:25:45.164Z,31.6
2023-01-27T05:31:37.909Z,31.1
2023-01-27T05:37:29.579Z,30.4
2023-01-27T05:43:23.678Z,31.1
2023-01-27T05:49:17.733Z,32.9
2023-01-27T05:55:08.433Z,31.6
2023-01-27T06:01:03.029Z,35.8
2023-01-27T06:06:54.566Z,33.2
2023-01-27T06:12:47.056Z,33.7
2023-01-27T06:18:37.937Z,34.7
2023-01-27T06:24:27.319Z,34
2023-01-27T06:30:18.365Z,36.8
2023-01-27T06:36:07.562Z,36.2
2023-01-27T06:42:00.245Z,40.8
2023-01-27T06:47:50.676Z,41.7
2023-01-27T06:53:41.315Z,39.4
2023-01-27T06:59:31.733Z,40.6
2023-01-27T07:05:24.042Z,37.5
2023-01-27T07:11:14.671Z,41
2023-01-27T07:17:05.497Z,44.3
2023-01-27T07:22:56.016Z,41
2023-01-27T07:28:48.708Z,40.7
2023-01-27T07:34:41.500Z,40.5
2023-01-27T07:40:31.015Z,37.4
2023-01-27T07:46:21.731Z,38.8
2023-01-27T07:52:14.745Z,39.2
2023-01-27T07:58:07.228Z,37.2
2023-01-27T08:03:59.050Z,39.8
2023-01-27T08:09:48.867Z,34.6
2023-01-27T08:16:47.959Z,32
2023-01-27T08:29:42.237Z,34.6
2023-01-27T08:36:39.198Z,33.5
2023-01-27T08:42:27.490Z,31.3
2023-01-27T08:53:05.665Z,34.3
2023-01-27T08:58:51.398Z,29.9
2023-01-27T09:04:40.513Z,31.2
2023-01-27T09:48:03.983Z,23.4
2023-01-27T09:53:48.945Z,19.6
2023-01-27T09:59:44.335Z,19.7
2023-01-27T10:05:35.051Z,20.3
2023-01-27T10:11:24.686Z,18.4
2023-01-27T10:17:14.153Z,14.7
2023-01-27T10:23:05.208Z,14.5
2023-01-27T10:28:55.972Z,13.7
2023-01-27T10:34:46.491Z,12.9
2023-01-27T10:40:34.844Z,12.1
2023-01-27T10:46:25.523Z,16.8
2023-01-27T10:52:17.111Z,15
2023-01-27T10:58:07.975Z,13.7
2023-01-27T11:03:59.547Z,9.3
2023-01-27T11:09:48.823Z,12.6
2023-01-27T11:15:37.277Z,16.3
2023-01-27T11:21:28.764Z,8.6
2023-01-27T11:27:19.753Z,16
2023-01-27T11:34:19.913Z,12.1
2023-01-27T11:40:09.061Z,4.7
2023-01-27T11:46:01.274Z,6.9
2023-01-27T11:51:53.746Z,3.4
2023-01-27T11:57:43.536Z,4.2
2023-01-27T12:03:33.090Z,3.4
2023-01-27T12:09:25.126Z,4.7
2023-01-27T12:15:15.471Z,4.2
2023-01-27T12:21:05.978Z,4.1
2023-01-27T12:26:56.248Z,3.3
2023-01-27T12:32:49.523Z,2
2023-01-27T12:38:40.038Z,4.6
2023-01-27T12:44:29.269Z,5.6
2023-01-27T12:50:20.918Z,2.5
2023-01-27T12:56:12.536Z,4.7
2023-01-27T13:02:04.066Z,2.7
2023-01-27T13:07:54.367Z,2.6
2023-01-27T13:13:45.295Z,2.5
2023-01-27T13:19:36.956Z,3.3
2023-01-27T13:25:27.030Z,3
2023-01-27T13:31:19.458Z,3.6
2023-01-27T13:37:12.049Z,3
2023-01-27T13:43:02.741Z,2.7
2023-01-27T13:48:53.838Z,3.3
2023-01-27T13:54:45.021Z,2.4
2023-01-27T14:00:37.692Z,2.2
2023-01-27T14:06:28.391Z,3
2023-01-27T14:12:18.753Z,2.9
2023-01-27T14:18:12.119Z,2.4
2023-01-27T14:24:02.667Z,2.9
2023-01-27T14:29:53.357Z,1.9
2023-01-27T14:35:43.917Z,3.4
2023-01-27T14:41:36.117Z,3.9
2023-01-27T14:47:27.372Z,2.8
2023-01-27T14:53:17.097Z,3.1
2023-01-27T14:59:07.982Z,4.3
2023-01-27T15:04:59.447Z,2.2
2023-01-27T15:10:52.692Z,1.8
2023-01-27T15:16:42.703Z,3.5
2023-01-27T15:22:33.048Z,5.2
2023-01-27T15:28:23.663Z,5.9
2023-01-27T15:34:13.980Z,3.2
2023-01-27T15:40:10.025Z,3.3
2023-01-27T15:45:59.870Z,8.4
2023-01-27T15:51:51.281Z,8.3
2023-01-27T15:57:41.999Z,4.1
2023-01-27T16:03:32.070Z,14.7
2023-01-27T16:09:22.981Z,13.5
2023-01-27T16:15:13.942Z,9.3
2023-01-27T16:21:04.873Z,14.8
2023-01-27T16:26:54.834Z,2.4
2023-01-27T16:32:45.843Z,3.7
2023-01-27T16:38:37.791Z,4.4
2023-01-27T16:44:29.853Z,3.4
2023-01-27T16:50:21.609Z,5.2
2023-01-27T16:56:10.548Z,20.3
2023-01-27T17:01:59.561Z,7.6
2023-01-27T17:07:49.305Z,7
2023-01-27T17:13:44.351Z,8.9
2023-01-27T17:19:33.585Z,10.2
2023-01-27T17:25:24.651Z,5.6
2023-01-27T17:31:16.096Z,6.5
2023-01-27T17:37:06.613Z,5.4
2023-01-27T17:42:56.579Z,5.5
2023-01-27T17:48:47.024Z,5.9
2023-01-27T17:54:38.335Z,6.7
2023-01-27T18:00:26.611Z,4.9
2023-01-27T18:06:16.548Z,6.6
2023-01-27T18:12:06.769Z,4.9
2023-01-27T18:18:00.817Z,7.7
2023-01-27T18:23:50.533Z,6.8
2023-01-27T18:29:40.989Z,8.4
2023-01-27T18:38:58.205Z,9.6
2023-01-27T18:51:45.231Z,12.5
2023-01-27T18:57:33.643Z,6.7
2023-01-27T19:03:23.082Z,7.9
2023-01-27T19:09:13.602Z,9.9
2023-01-27T19:17:21.175Z,11.6
2023-01-27T19:25:28.824Z,12.8
2023-01-27T19:33:34.691Z,12.3
2023-01-27T19:40:31.476Z,12.3
2023-01-27T19:51:02.573Z,13.8
2023-01-27T19:56:50.860Z,12.1
2023-01-27T20:02:40.273Z,13.9
2023-01-27T20:08:30.257Z,13.4
2023-01-27T20:14:20.423Z,11.3
2023-01-27T20:20:11.755Z,12.6
2023-01-27T20:26:02.716Z,15
2023-01-27T20:31:58.569Z,15.2
2023-01-27T20:44:51.332Z,18.9
2023-01-27T20:50:38.754Z,19.4
2023-01-27T20:56:28.946Z,14.5
2023-01-27T21:02:18.149Z,13.4
2023-01-27T21:08:09.409Z,14.4
2023-01-27T21:15:07.225Z,17.8
2023-01-27T21:20:58.702Z,15.7
2023-01-27T21:26:48.937Z,14.9
2023-01-27T21:32:41.930Z,16.4
2023-01-27T21:38:33.000Z,16.3
2023-01-27T21:44:22.413Z,13.3
2023-01-27T21:50:13.051Z,14.4
2023-01-27T21:56:04.895Z,17.4
2023-01-27T22:01:54.330Z,16.5
2023-01-27T22:07:43.371Z,16.3
2023-01-27T22:13:33.773Z,15.7
2023-01-27T22:19:23.263Z,15.7
2023-01-27T22:25:12.754Z,16.2
2023-01-27T22:31:05.170Z,15.7
2023-01-27T22:36:54.870Z,15.3
2023-01-27T22:42:44.773Z,14.3
2023-01-27T22:48:40.503Z,14
2023-01-27T22:54:27.825Z,14.9
2023-01-27T23:00:17.788Z,15.1
2023-01-27T23:06:08.118Z,16
2023-01-27T23:11:58.306Z,13.2
2023-01-27T23:17:48.295Z,19.4
2023-01-27T23:23:38.540Z,15.2
2023-01-27T23:29:33.660Z,14.9
2023-01-27T23:35:23.528Z,12.1
2023-01-27T23:41:13.843Z,12.6
2023-01-27T23:47:03.890Z,12.9
2023-01-27T23:52:56.003Z,13
2023-01-27T23:58:47.195Z,13.3
